METAR Data
IDs: Format: Raw Decoded Include TAF

Data at: 2056 UTC 18 Apr 2021

KX07 182055Z AUTO 24013KT 10SM CLR 31/20 A2985 RMK A01
KX07 182035Z AUTO 26013G19KT 10SM CLR 31/20 A2986 RMK A01
KX07 181955Z AUTO 25012KT 10SM FEW048 31/20 A2986 RMK A01
KX07 181935Z AUTO 25012G18KT 10SM FEW048 FEW060 32/20 A2987 RMK A01
KX07 181915Z AUTO 23014KT 10SM FEW065 32/21 A2988 RMK A01
KX07 181855Z AUTO 24012KT 10SM FEW055 SCT070 31/21 A2989 RMK A01
KX07 181835Z AUTO 23011KT 10SM FEW046 FEW055 FEW070 31/21 A2990 RMK A01
KX07 181815Z AUTO 25011G16KT 10SM FEW043 SCT055 SCT065 31/20 A2990 RMK A01
KX07 181715Z AUTO 23009G16KT 10SM SCT040 SCT049 BKN055 31/21 A2991 RMK A01
KX07 181655Z AUTO 24010G17KT 10SM FEW037 SCT043 BKN055 30/21 A2993 RMK A01
KX07 181635Z AUTO 24009G15KT 10SM FEW033 SCT039 SCT050 A2994 RMK A01
KX07 181615Z AUTO 23008KT 10SM FEW027 SCT034 BKN041 29/21 A2995 RMK A01
KX07 181555Z AUTO 23008KT 10SM FEW025 SCT030 SCT049 28/22 A2996 RMK A01
KX07 181515Z AUTO 22009KT 10SM BKN017 BKN022 BKN027 27/22 A2997 RMK A01
KX07 181435Z AUTO 21008KT 9SM OVC013 26/22 A2996 RMK A01
KX07 181415Z AUTO 24008KT 9SM BKN009 BKN013 25/23 A2996 RMK A01
KX07 181335Z AUTO 20009KT 9SM BKN007 24/23 A2996 RMK A01
KX07 181315Z AUTO 21009KT 7SM BKN005 23/23 A2995 RMK A01
KX07 181255Z AUTO 21008KT 5SM BR BKN005 23/23 A2995 RMK A01
KX07 181235Z AUTO 22006KT 4SM BR BKN003 BKN008 22/22 A2996 RMK A01
KX07 181215Z AUTO 24004KT 3SM BR OVC003 22/22 A2995 RMK A01
KX07 181155Z AUTO 23004KT 4SM BR OVC003 22/22 A2995 RMK A01
KX07 181115Z AUTO 24004KT 2SM BR OVC003 22/22 A2994 RMK A01
KX07 181015Z AUTO 23007KT 1/2SM BR OVC002 22/22 A2992 RMK A01
KX07 180955Z AUTO 22007KT 1/4SM FG OVC002 22/22 A2992 RMK A01
KX07 180935Z AUTO 21006KT 1SM BR OVC003 22/22 A2992 RMK A01
KX07 180915Z AUTO 21006KT 1 1/4SM BR OVC003 21/21 A2992 RMK A01
KX07 180855Z AUTO 00000KT M1/4SM FG OVC003 20/20 A2992 RMK A01
KX07 180835Z AUTO 00000KT 1 1/2SM BR BKN003 21/21 A2992 RMK A01
KX07 180815Z AUTO 00000KT 2SM BR FEW003 FEW027 SCT055 21/21 A2992 RMK A01
KX07 180755Z AUTO 21003KT 2 1/2SM BR SCT003 SCT030 BKN046 21/21 A2992 RMK A01
KX07 180735Z AUTO 20003KT 3SM BR FEW029 BKN055 OVC070 21/21 A2993 RMK A01
KX07 180715Z AUTO 22004KT 3SM BR SCT027 BKN033 OVC060 20/20 A2993 RMK A01
KX07 180655Z AUTO 20004KT 2 1/2SM BR SCT027 BKN033 OVC055 20/20 A2993 RMK A01
KX07 180635Z AUTO 00000KT 1SM BR SCT028 BKN032 OVC055 20/20 A2994 RMK A01
KX07 180615Z AUTO 00000KT 3/4SM BR SCT030 SCT037 OVC055 20/20 A2993 RMK A01
KX07 180555Z AUTO 00000KT 3SM BR FEW050 20/20 A2993 RMK A01
KX07 180535Z AUTO 00000KT 2 1/2SM BR FEW050 20/20 A2993 RMK A01
KX07 180515Z AUTO 00000KT 1/2SM BR VV005 A2994 RMK A01
KX07 180435Z AUTO 00000KT 9SM SCT031 SCT049 20/20 A2995 RMK A01
KX07 180415Z AUTO 00000KT 4SM BR FEW050 20/20 A2995 RMK A01
KX07 180335Z AUTO 00000KT 6SM BR CLR 20/20 A2994 RMK A01
KX07 180255Z AUTO 00000KT 8SM CLR 21/20 A2992 RMK A01
KX07 180235Z AUTO 25003KT 9SM CLR 22/21 A2991 RMK A01
KX07 180215Z AUTO 24004KT 10SM CLR 22/21 A2991 RMK A01
KX07 180055Z AUTO 27007KT 10SM FEW048 24/20 A2989 RMK A01
KX07 172355Z AUTO 27009KT 10SM CLR 26/20 A2988 RMK A01
KX07 172315Z AUTO 26010KT 10SM CLR 28/20 A2986 RMK A01
KX07 172255Z AUTO 26013KT 10SM CLR 28/20 A2986 RMK A01
KX07 172215Z AUTO 27012KT 10SM FEW044 FEW055 29/20 A2985 RMK A01
KX07 172155Z AUTO 28012KT 10SM FEW042 FEW049 SCT060 29/20 A2985 RMK A01
KX07 172055Z AUTO 26011KT 10SM SCT048 SCT055 30/19 A2984 RMK A01
KX07 171955Z AUTO 25011KT 10SM FEW048 SCT055 30/20 A2985 RMK A01
KX07 171915Z AUTO 27011G17KT 10SM SCT045 A2986 RMK A01
KX07 171855Z AUTO 23012KT 10SM SCT044 30/20 A2987 RMK A01
KX07 171815Z AUTO 27006G14KT 10SM FEW037 SCT044 SCT050 A2989 RMK A01
KX07 171755Z AUTO 25009G15KT 10SM FEW038 SCT049 29/20 A2990 RMK A01
KX07 171735Z AUTO 26008G15KT 10SM FEW032 FEW047 29/20 A2990 RMK A01
KX07 171715Z AUTO 24010KT 10SM FEW032 SCT048 SCT055 28/20 A2991 RMK A01
KX07 171655Z AUTO 24013KT 10SM SCT032 BKN042 BKN050 29/21 A2992 RMK A01
KX07 171635Z AUTO 25008G13KT 10SM SCT029 SCT035 SCT040 28/21 A2992 RMK A01
KX07 171615Z AUTO 24011KT 10SM FEW024 SCT029 BKN049 28/21 A2993 RMK A01
KX07 171555Z AUTO 24012KT 10SM SCT023 BKN033 BKN042 27/21 A2994 RMK A01
KX07 171535Z AUTO 25009KT 9SM SCT021 SCT029 BKN035 26/21 A2994 RMK A01
KX07 171455Z AUTO 26009KT 8SM BKN017 BKN021 25/22 A2994 RMK A01
KX07 171435Z AUTO 25010KT 7SM SCT013 24/22 A2994 RMK A01
KX07 171415Z AUTO 22007KT 5SM BR BKN013 24/22 A2991 RMK A01
KX07 171355Z AUTO 20009KT 5SM BR BKN013 23/22 A2991 RMK A01
KX07 171335Z AUTO 23007KT 4SM BR FEW013 23/22 A2993 RMK A01
KX07 171235Z AUTO 23006KT 3SM BR CLR 22/22 A2992 RMK A01
KX07 171215Z AUTO 22007KT 2 1/2SM BR FEW009 FEW013 22/22 A2991 RMK A01
KX07 171135Z AUTO 22008KT 2 1/2SM BR OVC007 22/22 A2989 RMK A01
KX07 171055Z AUTO 21005KT 1 3/4SM BR OVC005 21/21 A2987 RMK A01
KX07 171035Z AUTO 21005KT 1 3/4SM BR OVC004 21/21 A2987 RMK A01
KX07 171015Z AUTO 21006KT 1 3/4SM BR OVC004 21/21 A2987 RMK A01
KX07 170935Z AUTO 23005KT 1 1/4SM BR OVC003 21/21 A2987 RMK A01
KX07 170915Z AUTO 24008KT 1/4SM FG OVC002 21/21 A2987 RMK A01